createdAt,value
2018-05-17T00:00:57.906Z,0.00
2018-05-17T00:01:57.846Z,0.00
2018-05-17T00:02:57.783Z,0.00
2018-05-17T00:03:57.723Z,0.00
2018-05-17T00:04:57.660Z,0.00
2018-05-17T00:05:57.599Z,0.00
2018-05-17T00:06:57.542Z,0.00
2018-05-17T00:07:57.473Z,0.00
2018-05-17T00:08:57.418Z,0.00
2018-05-17T00:09:57.361Z,0.00
2018-05-17T00:10:57.323Z,0.00
2018-05-17T00:11:57.360Z,0.00
2018-05-17T00:12:57.171Z,0.00
2018-05-17T00:13:57.112Z,0.00
2018-05-17T00:14:57.050Z,0.00
2018-05-17T00:15:56.989Z,0.00
2018-05-17T00:16:56.928Z,0.00
2018-05-17T00:17:56.868Z,0.00
2018-05-17T00:18:56.809Z,0.00
2018-05-17T00:19:56.739Z,0.00
2018-05-17T00:20:56.683Z,0.00
2018-05-17T00:21:56.621Z,0.00
2018-05-17T00:22:56.562Z,0.00
2018-05-17T00:23:56.499Z,0.00
2018-05-17T00:24:56.442Z,0.00
2018-05-17T00:25:56.374Z,0.00
2018-05-17T00:26:56.319Z,0.00
2018-05-17T00:27:56.255Z,0.00
2018-05-17T00:28:56.196Z,0.00
2018-05-17T00:29:56.141Z,0.00
2018-05-17T00:30:56.075Z,0.00
2018-05-17T00:31:56.011Z,0.00
2018-05-17T00:32:55.949Z,0.00
2018-05-17T00:33:55.890Z,0.00
2018-05-17T00:34:55.832Z,0.00
2018-05-17T00:35:55.768Z,0.00
2018-05-17T00:36:55.711Z,0.00
2018-05-17T00:37:55.647Z,0.00
2018-05-17T00:38:55.586Z,0.00
2018-05-17T00:39:55.530Z,0.00
2018-05-17T00:40:55.457Z,0.00
2018-05-17T00:41:55.403Z,0.00
2018-05-17T00:42:55.344Z,0.00
2018-05-17T00:43:55.282Z,0.00
2018-05-17T00:44:55.218Z,0.00
2018-05-17T00:45:55.172Z,0.00
2018-05-17T00:46:55.093Z,0.00
2018-05-17T00:47:55.037Z,0.00
2018-05-17T00:48:54.974Z,0.00
2018-05-17T00:49:54.910Z,0.00
2018-05-17T00:50:54.848Z,0.00
2018-05-17T00:51:54.785Z,0.00
2018-05-17T00:52:54.729Z,0.00
2018-05-17T00:53:54.673Z,0.00
2018-05-17T00:54:54.605Z,0.00
2018-05-17T00:55:54.545Z,0.00
2018-05-17T00:56:54.484Z,0.00
2018-05-17T00:57:54.421Z,0.00
2018-05-17T00:58:54.356Z,0.00
2018-05-17T00:59:54.301Z,0.00
2018-05-17T01:00:54.237Z,0.00
2018-05-17T01:01:54.179Z,0.00
2018-05-17T01:02:54.118Z,0.00
2018-05-17T01:03:54.054Z,0.00
2018-05-17T01:04:53.992Z,0.00
2018-05-17T01:05:53.934Z,0.00
2018-05-17T01:06:53.878Z,0.00
2018-05-17T01:07:53.808Z,0.00
2018-05-17T01:08:53.748Z,0.00
2018-05-17T01:09:53.686Z,0.00
2018-05-17T01:10:53.629Z,0.00
2018-05-17T01:11:53.570Z,0.00
2018-05-17T01:12:53.513Z,0.00
2018-05-17T01:13:53.442Z,0.00
2018-05-17T01:14:53.384Z,0.00
2018-05-17T01:15:53.319Z,0.00
2018-05-17T01:16:53.259Z,0.00
2018-05-17T01:17:53.198Z,0.00
2018-05-17T01:18:53.134Z,0.00
2018-05-17T01:19:53.074Z,0.00
2018-05-17T01:20:53.013Z,0.00
2018-05-17T01:21:52.949Z,0.00
2018-05-17T01:22:52.889Z,0.00
2018-05-17T01:23:52.825Z,0.00
2018-05-17T01:24:52.790Z,0.00
2018-05-17T01:25:52.706Z,0.00
2018-05-17T01:26:52.646Z,0.00
2018-05-17T01:27:52.583Z,0.00
2018-05-17T01:28:52.521Z,0.00
2018-05-17T01:29:52.467Z,0.00
2018-05-17T01:30:52.399Z,0.00
2018-05-17T01:31:52.346Z,0.00
2018-05-17T01:32:52.271Z,0.00
2018-05-17T01:33:52.218Z,0.00
2018-05-17T01:34:52.150Z,0.00
2018-05-17T01:35:52.088Z,0.00
2018-05-17T01:36:52.032Z,0.00
2018-05-17T01:37:51.969Z,0.00
2018-05-17T01:38:51.903Z,0.00
2018-05-17T01:39:51.845Z,0.00
2018-05-17T01:40:51.782Z,0.00
2018-05-17T01:41:51.721Z,0.00
2018-05-17T01:42:51.658Z,0.00
2018-05-17T01:43:51.601Z,0.00
2018-05-17T01:44:51.533Z,0.00
2018-05-17T01:45:51.473Z,0.00
2018-05-17T01:46:51.418Z,0.00
2018-05-17T01:47:51.350Z,0.00
2018-05-17T01:48:51.291Z,0.00
2018-05-17T01:49:51.229Z,0.00
2018-05-17T01:50:51.167Z,0.00
2018-05-17T01:51:51.111Z,0.00
2018-05-17T01:52:51.042Z,0.00
2018-05-17T01:53:50.983Z,0.00
2018-05-17T01:54:50.916Z,0.00
2018-05-17T01:55:50.857Z,0.00
2018-05-17T01:56:50.792Z,0.00
2018-05-17T01:57:50.736Z,0.00
2018-05-17T01:58:50.678Z,0.00
2018-05-17T01:59:50.610Z,0.00
2018-05-17T02:00:50.547Z,0.00
2018-05-17T02:01:50.489Z,0.00
2018-05-17T02:02:50.428Z,0.00
2018-05-17T02:03:50.360Z,0.00
2018-05-17T02:04:50.296Z,0.00
2018-05-17T02:05:50.240Z,0.00
2018-05-17T02:06:50.176Z,0.00
2018-05-17T02:07:50.130Z,0.00
2018-05-17T02:08:50.053Z,0.00
2018-05-17T02:09:49.989Z,0.00
2018-05-17T02:10:49.933Z,0.00
2018-05-17T02:11:49.870Z,0.00
2018-05-17T02:12:49.805Z,0.00
2018-05-17T02:13:49.741Z,0.00
2018-05-17T02:14:49.680Z,0.00
2018-05-17T02:15:49.616Z,0.00
2018-05-17T02:16:49.553Z,0.00
2018-05-17T02:17:49.506Z,0.00
2018-05-17T02:18:49.435Z,0.00
2018-05-17T02:19:49.372Z,0.00
2018-05-17T02:20:49.313Z,0.00
2018-05-17T02:21:49.244Z,0.00
2018-05-17T02:22:49.188Z,0.00
2018-05-17T02:23:49.121Z,0.00
2018-05-17T02:24:49.060Z,0.00
2018-05-17T02:25:48.996Z,0.00
2018-05-17T02:26:48.934Z,0.00
2018-05-17T02:27:48.873Z,0.00
2018-05-17T02:28:48.812Z,0.00
2018-05-17T02:29:48.749Z,0.00
2018-05-17T02:30:48.686Z,0.00
2018-05-17T02:31:48.625Z,0.00
2018-05-17T02:32:48.569Z,0.00
2018-05-17T02:33:48.501Z,0.00
2018-05-17T02:34:48.439Z,0.00
2018-05-17T02:35:48.374Z,0.00
2018-05-17T02:36:48.312Z,0.00
2018-05-17T02:37:48.253Z,0.00
2018-05-17T02:38:48.194Z,0.00
2018-05-17T02:39:48.127Z,0.00
2018-05-17T02:40:48.063Z,0.00
2018-05-17T02:41:48.004Z,0.00
2018-05-17T02:42:47.942Z,0.00
2018-05-17T02:43:47.881Z,0.00
2018-05-17T02:44:47.817Z,0.00
2018-05-17T02:45:47.753Z,0.00
2018-05-17T02:46:47.715Z,0.00
2018-05-17T02:47:47.629Z,0.00
2018-05-17T02:48:47.562Z,0.00
2018-05-17T02:49:47.515Z,0.00
2018-05-17T02:50:47.443Z,0.00
2018-05-17T02:51:47.377Z,0.00
2018-05-17T02:52:47.327Z,0.00
2018-05-17T02:53:47.252Z,0.00
2018-05-17T02:54:47.192Z,0.00
2018-05-17T02:55:47.130Z,0.00
2018-05-17T02:56:47.075Z,0.00
2018-05-17T02:57:47.002Z,0.00
2018-05-17T02:58:46.945Z,0.00
2018-05-17T02:59:46.881Z,0.00
2018-05-17T03:00:46.815Z,5.63
2018-05-17T03:01:46.761Z,5.63
2018-05-17T03:02:46.696Z,5.63
2018-05-17T03:03:46.633Z,5.63
2018-05-17T03:04:46.568Z,5.63
2018-05-17T03:05:46.512Z,5.63
2018-05-17T03:06:46.444Z,5.63
2018-05-17T03:07:46.382Z,5.63
2018-05-17T03:08:46.324Z,11.25
2018-05-17T03:09:46.258Z,11.25
2018-05-17T03:10:46.197Z,11.25
2018-05-17T03:11:46.132Z,11.25
2018-05-17T03:12:46.078Z,11.25
2018-05-17T03:13:46.010Z,11.25
2018-05-17T03:14:45.947Z,16.88
2018-05-17T03:15:45.883Z,16.88
2018-05-17T03:16:45.825Z,16.88
2018-05-17T03:17:46.489Z,16.88
2018-05-17T03:18:45.694Z,16.88
2018-05-17T03:19:45.628Z,22.50
2018-05-17T03:20:45.569Z,22.50
2018-05-17T03:21:45.512Z,22.50
2018-05-17T03:22:45.445Z,22.50
2018-05-17T03:23:45.384Z,28.13
2018-05-17T03:24:45.322Z,28.13
2018-05-17T03:25:45.268Z,28.13
2018-05-17T03:26:45.198Z,28.13
2018-05-17T03:27:45.130Z,33.75
2018-05-17T03:28:45.071Z,33.75
2018-05-17T03:29:45.011Z,33.75
2018-05-17T03:30:44.946Z,33.75
2018-05-17T03:31:44.879Z,39.38
2018-05-17T03:32:44.818Z,39.38
2018-05-17T03:33:44.756Z,39.38
2018-05-17T03:34:44.694Z,39.38
2018-05-17T03:35:44.632Z,45.00
2018-05-17T03:36:44.576Z,45.00
2018-05-17T03:37:44.503Z,45.00
2018-05-17T03:38:44.443Z,45.00
2018-05-17T03:39:44.379Z,50.63
2018-05-17T03:40:44.316Z,50.63
2018-05-17T03:41:44.252Z,50.63
2018-05-17T03:42:44.195Z,56.25
2018-05-17T03:43:44.141Z,56.25
2018-05-17T03:44:44.064Z,56.25
2018-05-17T03:45:44.004Z,56.25
2018-05-17T03:46:43.945Z,61.88
2018-05-17T03:47:43.881Z,61.88
2018-05-17T03:48:43.818Z,61.88
2018-05-17T03:49:43.754Z,67.50
2018-05-17T03:50:43.688Z,67.50
2018-05-17T03:51:43.624Z,67.50
2018-05-17T03:52:43.571Z,67.50
2018-05-17T03:53:43.503Z,73.13
2018-05-17T03:54:43.446Z,73.13
2018-05-17T03:55:43.379Z,73.13
2018-05-17T03:56:43.316Z,78.75
2018-05-17T03:57:43.254Z,78.75
2018-05-17T03:58:43.189Z,78.75
2018-05-17T03:59:43.131Z,84.38
2018-05-17T04:00:43.063Z,84.38
2018-05-17T04:01:43.001Z,84.38
2018-05-17T04:02:42.947Z,84.38
2018-05-17T04:03:42.878Z,90.00
2018-05-17T04:04:42.822Z,90.00
2018-05-17T04:05:42.752Z,90.00
2018-05-17T04:06:42.690Z,95.63
2018-05-17T04:07:42.627Z,95.63
2018-05-17T04:08:42.565Z,95.63
2018-05-17T04:09:42.505Z,101.25
2018-05-17T04:10:42.439Z,101.25
2018-05-17T04:11:42.375Z,101.25
2018-05-17T04:12:42.312Z,101.25
2018-05-17T04:13:42.251Z,106.88
2018-05-17T04:14:42.191Z,106.88
2018-05-17T04:15:42.128Z,106.88
2018-05-17T04:16:42.063Z,112.50
2018-05-17T04:17:42.004Z,112.50
2018-05-17T04:18:41.940Z,112.50
2018-05-17T04:19:41.877Z,118.13
2018-05-17T04:20:41.815Z,118.13
2018-05-17T04:21:50.400Z,118.13
2018-05-17T04:23:36.089Z,123.75
2018-05-17T04:24:35.949Z,129.38
2018-05-17T04:26:30.241Z,129.38
2018-05-17T04:27:30.145Z,135.00
2018-05-17T04:29:23.468Z,135.00
2018-05-17T04:30:30.998Z,140.63
2018-05-17T04:32:16.681Z,146.25
2018-05-17T04:33:16.568Z,146.25
2018-05-17T04:35:10.867Z,151.88
2018-05-17T04:36:10.766Z,151.88
2018-05-17T04:38:04.084Z,157.50
2018-05-17T04:39:03.973Z,157.50
2018-05-17T04:40:58.279Z,157.50
2018-05-17T04:41:58.178Z,157.50
2018-05-17T04:43:53.078Z,168.75
2018-05-17T04:44:52.373Z,168.75
2018-05-17T04:46:46.667Z,168.75
2018-05-17T04:47:46.572Z,174.38
2018-05-17T04:49:40.877Z,180.00
2018-05-17T04:50:40.770Z,180.00
2018-05-17T04:52:35.064Z,185.63
2018-05-17T04:53:34.974Z,185.63
2018-05-17T04:55:29.265Z,191.25
2018-05-17T04:56:29.167Z,196.88
2018-05-17T04:58:23.472Z,202.50
2018-05-17T04:59:23.363Z,208.13
2018-05-17T05:01:17.657Z,213.75
2018-05-17T05:02:17.567Z,219.38
2018-05-17T05:04:11.874Z,230.63
2018-05-17T05:05:11.766Z,236.25
2018-05-17T05:07:06.068Z,286.88
2018-05-17T05:08:05.970Z,320.63
2018-05-17T05:10:00.262Z,343.13
2018-05-17T05:11:00.169Z,348.75
2018-05-17T05:12:54.074Z,360.00
2018-05-17T05:13:53.378Z,354.38
2018-05-17T05:15:47.686Z,309.38
2018-05-17T05:16:47.578Z,281.25
2018-05-17T05:18:41.986Z,270.00
2018-05-17T05:19:41.779Z,264.38
2018-05-17T05:21:36.092Z,270.00
2018-05-17T05:22:35.995Z,270.00
2018-05-17T05:24:30.301Z,253.13
2018-05-17T05:25:30.234Z,253.13
2018-05-17T05:27:23.512Z,253.13
2018-05-17T05:28:23.450Z,253.13
2018-05-17T05:29:23.356Z,253.13
2018-05-17T05:30:23.297Z,258.75
2018-05-17T05:31:23.233Z,258.75
2018-05-17T05:32:23.167Z,258.75
2018-05-17T05:33:23.227Z,281.25
2018-05-17T05:34:23.048Z,298.13
2018-05-17T05:35:22.983Z,309.38
2018-05-17T05:36:22.924Z,320.63
2018-05-17T05:37:22.862Z,331.88
2018-05-17T05:38:22.804Z,337.50
2018-05-17T05:39:22.742Z,348.75
2018-05-17T05:40:22.676Z,360.00
2018-05-17T05:41:22.612Z,371.25
2018-05-17T05:42:22.552Z,382.50
2018-05-17T05:43:22.588Z,382.50
2018-05-17T05:44:22.432Z,393.75
2018-05-17T05:45:22.371Z,399.38
2018-05-17T05:46:22.315Z,405.00
2018-05-17T05:47:22.244Z,410.63
2018-05-17T05:48:22.180Z,410.63
2018-05-17T05:49:22.184Z,410.63
2018-05-17T05:50:22.065Z,410.63
2018-05-17T05:51:22.000Z,416.25
2018-05-17T05:52:21.938Z,421.88
2018-05-17T05:53:21.873Z,427.50
2018-05-17T05:54:21.814Z,427.50
2018-05-17T05:55:21.753Z,427.50
2018-05-17T05:56:21.691Z,416.25
2018-05-17T05:57:21.631Z,433.13
2018-05-17T05:58:21.571Z,433.13
2018-05-17T05:59:21.509Z,450.00
2018-05-17T06:00:21.448Z,450.00
2018-05-17T06:01:21.383Z,427.50
2018-05-17T06:02:21.350Z,455.63
2018-05-17T06:03:21.263Z,478.13
2018-05-17T06:04:21.201Z,483.75
2018-05-17T06:05:21.142Z,500.63
2018-05-17T06:06:21.082Z,551.25
2018-05-17T06:07:21.018Z,534.38
2018-05-17T06:08:21.058Z,635.63
2018-05-17T06:09:20.895Z,652.50
2018-05-17T06:10:20.835Z,596.25
2018-05-17T06:11:20.776Z,686.25
2018-05-17T06:12:20.721Z,720.00
2018-05-17T06:13:20.651Z,585.00
2018-05-17T06:14:20.590Z,585.00
2018-05-17T06:15:20.531Z,596.25
2018-05-17T06:16:20.469Z,556.88
2018-05-17T06:17:20.444Z,579.38
2018-05-17T06:18:20.350Z,601.88
2018-05-17T06:19:20.286Z,596.25
2018-05-17T06:20:20.228Z,641.25
2018-05-17T06:21:20.165Z,630.00
2018-05-17T06:22:20.108Z,579.38
2018-05-17T06:23:20.046Z,556.88
2018-05-17T06:24:19.985Z,545.63
2018-05-17T06:25:19.924Z,568.13
2018-05-17T06:26:19.862Z,540.00
2018-05-17T06:27:19.803Z,545.63
2018-05-17T06:28:19.740Z,540.00
2018-05-17T06:29:19.697Z,545.63
2018-05-17T06:30:19.752Z,528.75
2018-05-17T06:31:19.560Z,517.50
2018-05-17T06:32:19.496Z,506.25
2018-05-17T06:33:19.437Z,489.38
2018-05-17T06:34:19.382Z,450.00
2018-05-17T06:35:19.316Z,433.13
2018-05-17T06:36:19.258Z,416.25
2018-05-17T06:37:19.195Z,399.38
2018-05-17T06:38:19.143Z,388.13
2018-05-17T06:39:19.076Z,399.38
2018-05-17T06:40:19.014Z,405.00
2018-05-17T06:41:18.955Z,388.13
2018-05-17T06:42:18.910Z,388.13
2018-05-17T06:43:18.832Z,421.88
2018-05-17T06:44:18.771Z,444.38
2018-05-17T06:45:18.712Z,495.00
2018-05-17T06:46:18.653Z,517.50
2018-05-17T06:47:19.098Z,596.25
2018-05-17T06:48:19.096Z,675.00
2018-05-17T06:49:18.471Z,686.25
2018-05-17T06:50:18.411Z,759.38
2018-05-17T06:51:18.350Z,776.25
2018-05-17T06:52:18.283Z,877.50
2018-05-17T06:53:18.226Z,804.38
2018-05-17T06:54:18.172Z,736.88
2018-05-17T06:55:18.106Z,759.38
2018-05-17T06:56:18.051Z,770.63
2018-05-17T06:57:17.991Z,905.63
2018-05-17T06:58:17.923Z,832.50
2018-05-17T06:59:17.867Z,798.75
2018-05-17T07:00:17.808Z,821.25
2018-05-17T07:01:17.758Z,888.75
2018-05-17T07:02:17.689Z,871.88
2018-05-17T07:03:17.623Z,888.75
2018-05-17T07:04:17.562Z,838.13
2018-05-17T07:05:17.513Z,680.63
2018-05-17T07:06:17.462Z,781.88
2018-05-17T07:07:25.041Z,849.38
2018-05-17T07:09:10.711Z,725.63
2018-05-17T07:10:10.610Z,765.00
2018-05-17T07:12:04.917Z,849.38
2018-05-17T07:13:04.821Z,871.88
2018-05-17T07:14:04.771Z,950.63
2018-05-17T07:15:04.717Z,826.88
2018-05-17T07:16:04.648Z,877.50
2018-05-17T07:17:04.604Z,871.88
2018-05-17T07:18:04.676Z,838.13
2018-05-17T07:19:04.473Z,883.13
2018-05-17T07:20:04.412Z,736.88
2018-05-17T07:21:04.355Z,748.13
2018-05-17T07:22:04.292Z,714.38
2018-05-17T07:23:04.236Z,691.88
2018-05-17T07:24:04.263Z,675.00
2018-05-17T07:25:04.117Z,652.50
2018-05-17T07:26:04.060Z,601.88
2018-05-17T07:27:04.043Z,562.50
2018-05-17T07:28:03.947Z,590.63
2018-05-17T07:29:03.884Z,556.88
2018-05-17T07:30:03.823Z,562.50
2018-05-17T07:31:03.766Z,585.00
2018-05-17T07:32:03.705Z,596.25
2018-05-17T07:33:03.646Z,579.38
2018-05-17T07:34:03.586Z,675.00
2018-05-17T07:35:03.534Z,781.88
2018-05-17T07:36:03.470Z,725.63
2018-05-17T07:37:03.410Z,787.50
2018-05-17T07:38:03.350Z,810.00
2018-05-17T07:39:03.290Z,798.75
2018-05-17T07:40:03.238Z,826.88
2018-05-17T07:41:03.174Z,911.25
2018-05-17T07:42:03.114Z,843.75
2018-05-17T07:43:03.057Z,748.13
2018-05-17T07:44:03.001Z,770.63
2018-05-17T07:45:02.941Z,815.63
2018-05-17T07:46:02.875Z,815.63
2018-05-17T07:47:02.819Z,832.50
2018-05-17T07:48:02.760Z,804.38
2018-05-17T07:49:02.704Z,793.13
2018-05-17T07:50:02.666Z,736.88
2018-05-17T07:51:02.580Z,708.75
2018-05-17T07:52:02.539Z,798.75
2018-05-17T07:53:02.465Z,928.13
2018-05-17T07:54:02.404Z,950.63
2018-05-17T07:55:02.347Z,871.88
2018-05-17T07:56:02.287Z,956.25
2018-05-17T07:57:02.229Z,950.63
2018-05-17T07:58:02.172Z,838.13
2018-05-17T07:59:02.114Z,815.63
2018-05-17T08:00:02.053Z,759.38
2018-05-17T08:01:01.995Z,742.50
2018-05-17T08:02:01.943Z,686.25
2018-05-17T08:03:01.880Z,720.00
2018-05-17T08:04:01.820Z,742.50
2018-05-17T08:05:01.758Z,770.63
2018-05-17T08:06:01.699Z,815.63
2018-05-17T08:07:01.644Z,765.00
2018-05-17T08:08:01.601Z,787.50
2018-05-17T08:09:01.530Z,843.75
2018-05-17T08:10:01.470Z,945.00
2018-05-17T08:11:01.405Z,967.50
2018-05-17T08:12:01.348Z,928.13
2018-05-17T08:13:01.294Z,911.25
2018-05-17T08:14:01.236Z,900.00
2018-05-17T08:15:01.174Z,804.38
2018-05-17T08:16:01.114Z,945.00
2018-05-17T08:17:01.058Z,978.75
2018-05-17T08:18:01.005Z,922.50
2018-05-17T08:19:00.944Z,877.50
2018-05-17T08:20:00.883Z,973.13
2018-05-17T08:21:00.826Z,1096.88
2018-05-17T08:22:00.766Z,1001.25
2018-05-17T08:23:00.705Z,1006.88
2018-05-17T08:24:00.646Z,995.63
2018-05-17T08:25:00.590Z,928.13
2018-05-17T08:26:00.534Z,877.50
2018-05-17T08:27:00.477Z,759.38
2018-05-17T08:28:00.418Z,720.00
2018-05-17T08:29:00.418Z,787.50
2018-05-17T08:30:00.300Z,826.88
2018-05-17T08:31:00.257Z,973.13
2018-05-17T08:32:00.187Z,995.63
2018-05-17T08:33:00.129Z,1068.75
2018-05-17T08:34:00.070Z,1018.13
2018-05-17T08:35:00.012Z,916.88
2018-05-17T08:35:59.953Z,905.63
2018-05-17T08:36:59.896Z,838.13
2018-05-17T08:37:59.838Z,877.50
2018-05-17T08:38:59.788Z,928.13
2018-05-17T08:39:59.725Z,871.88
2018-05-17T08:40:59.675Z,1063.13
2018-05-17T08:41:59.609Z,1080.00
2018-05-17T08:42:59.552Z,1068.75
2018-05-17T08:43:59.491Z,1108.13
2018-05-17T08:44:59.436Z,1006.88
2018-05-17T08:45:59.379Z,967.50
2018-05-17T08:46:59.319Z,990.00
2018-05-17T08:47:59.259Z,1023.75
2018-05-17T08:48:59.204Z,1018.13
2018-05-17T08:49:59.146Z,911.25
2018-05-17T08:50:59.091Z,888.75
2018-05-17T08:51:59.035Z,843.75
2018-05-17T08:52:58.986Z,798.75
2018-05-17T08:53:58.918Z,798.75
2018-05-17T08:54:58.860Z,748.13
2018-05-17T08:55:58.808Z,742.50
2018-05-17T08:56:58.748Z,759.38
2018-05-17T08:57:58.685Z,781.88
2018-05-17T08:58:58.630Z,849.38
2018-05-17T08:59:58.572Z,798.75
2018-05-17T09:00:58.518Z,871.88
2018-05-17T09:01:58.456Z,961.88
2018-05-17T09:02:58.399Z,916.88
2018-05-17T09:03:58.343Z,849.38
2018-05-17T09:04:58.282Z,804.38
2018-05-17T09:05:58.225Z,781.88
2018-05-17T09:06:59.015Z,798.75
2018-05-17T09:07:58.108Z,855.00
2018-05-17T09:08:58.051Z,877.50
2018-05-17T09:09:57.991Z,810.00
2018-05-17T09:10:57.936Z,1029.38
2018-05-17T09:11:57.881Z,1057.50
2018-05-17T09:12:57.825Z,1051.88
2018-05-17T09:13:57.764Z,1001.25
2018-05-17T09:14:57.704Z,945.00
2018-05-17T09:15:57.652Z,877.50
2018-05-17T09:16:57.589Z,793.13
2018-05-17T09:17:57.532Z,843.75
2018-05-17T09:18:57.472Z,973.13
2018-05-17T09:19:57.418Z,1102.50
2018-05-17T09:20:57.364Z,1164.38
2018-05-17T09:21:57.301Z,1321.88
2018-05-17T09:22:57.249Z,1153.13
2018-05-17T09:23:57.191Z,1158.75
2018-05-17T09:24:57.130Z,1051.88
2018-05-17T09:25:57.069Z,950.63
2018-05-17T09:26:57.013Z,945.00
2018-05-17T09:27:56.959Z,1074.38
2018-05-17T09:28:56.900Z,1080.00
2018-05-17T09:29:56.840Z,1108.13
2018-05-17T09:30:56.787Z,1282.50
2018-05-17T09:31:56.729Z,1102.50
2018-05-17T09:32:56.667Z,1046.25
2018-05-17T09:33:56.610Z,1063.13
2018-05-17T09:34:56.554Z,1091.25
2018-05-17T09:35:56.504Z,1085.63
2018-05-17T09:36:56.446Z,1198.13
2018-05-17T09:37:56.383Z,1119.38
2018-05-17T09:38:56.328Z,1063.13
2018-05-17T09:39:56.268Z,1271.25
2018-05-17T09:40:56.290Z,1203.75
2018-05-17T09:41:56.153Z,1271.25
2018-05-17T09:42:56.098Z,1333.13
2018-05-17T09:43:56.041Z,1153.13
2018-05-17T09:44:56.004Z,1186.88
2018-05-17T09:45:55.931Z,1198.13
2018-05-17T09:46:55.866Z,1299.38
2018-05-17T09:47:55.809Z,1428.75
2018-05-17T09:48:55.754Z,1428.75
2018-05-17T09:49:55.697Z,1406.25
2018-05-17T09:50:55.646Z,1389.38
2018-05-17T09:51:55.578Z,1231.88
2018-05-17T09:52:55.531Z,1248.75
2018-05-17T09:53:55.466Z,1327.50
2018-05-17T09:54:55.490Z,1282.50
2018-05-17T09:55:55.355Z,1299.38
2018-05-17T09:56:55.297Z,1125.00
2018-05-17T09:57:55.243Z,1096.88
2018-05-17T09:58:55.189Z,1102.50
2018-05-17T09:59:55.127Z,1035.00
2018-05-17T10:00:55.075Z,978.75
2018-05-17T10:01:55.015Z,1001.25
2018-05-17T10:02:54.958Z,967.50
2018-05-17T10:03:54.903Z,860.63
2018-05-17T10:04:54.842Z,905.63
2018-05-17T10:05:54.786Z,990.00
2018-05-17T10:06:54.734Z,1153.13
2018-05-17T10:07:54.684Z,1153.13
2018-05-17T10:08:54.638Z,1046.25
2018-05-17T10:09:54.598Z,1175.63
2018-05-17T10:10:54.504Z,1068.75
2018-05-17T10:11:54.488Z,1012.50
2018-05-17T10:12:54.387Z,995.63
2018-05-17T10:13:54.332Z,1125.00
2018-05-17T10:14:54.274Z,1305.00
2018-05-17T10:15:54.219Z,1406.25
2018-05-17T10:16:54.166Z,1417.50
2018-05-17T10:17:54.120Z,1316.25
2018-05-17T10:18:54.043Z,1113.75
2018-05-17T10:19:53.987Z,928.13
2018-05-17T10:20:53.933Z,855.00
2018-05-17T10:21:53.970Z,849.38
2018-05-17T10:22:53.815Z,832.50
2018-05-17T10:23:53.759Z,838.13
2018-05-17T10:24:53.713Z,916.88
2018-05-17T10:25:53.646Z,1108.13
2018-05-17T10:26:53.595Z,1136.25
2018-05-17T10:27:53.534Z,1057.50
2018-05-17T10:28:53.474Z,1029.38
2018-05-17T10:29:53.424Z,1063.13
2018-05-17T10:30:53.362Z,1108.13
2018-05-17T10:31:53.303Z,1023.75
2018-05-17T10:32:53.245Z,1006.88
2018-05-17T10:33:53.188Z,1006.88
2018-05-17T10:34:53.137Z,973.13
2018-05-17T10:35:53.077Z,1018.13
2018-05-17T10:36:53.016Z,1040.63
2018-05-17T10:37:52.969Z,1085.63
2018-05-17T10:38:52.909Z,1080.00
2018-05-17T10:39:52.859Z,1006.88
2018-05-17T10:40:52.801Z,1074.38
2018-05-17T10:41:52.737Z,928.13
2018-05-17T10:42:52.697Z,883.13
2018-05-17T10:43:52.669Z,933.75
2018-05-17T10:44:52.563Z,905.63
2018-05-17T10:45:52.506Z,871.88
2018-05-17T10:46:52.461Z,849.38
2018-05-17T10:47:52.395Z,849.38
2018-05-17T10:48:52.340Z,843.75
2018-05-17T10:49:52.280Z,855.00
2018-05-17T10:50:52.221Z,883.13
2018-05-17T10:51:52.164Z,905.63
2018-05-17T10:52:52.107Z,928.13
2018-05-17T10:53:52.051Z,905.63
2018-05-17T10:54:51.994Z,900.00
2018-05-17T10:55:51.936Z,928.13
2018-05-17T10:56:51.879Z,984.38
2018-05-17T10:57:51.823Z,1029.38
2018-05-17T10:58:51.767Z,1125.00
2018-05-17T10:59:51.710Z,1260.00
2018-05-17T11:00:51.956Z,1305.00
2018-05-17T11:01:52.018Z,1220.63
2018-05-17T11:02:51.539Z,1271.25
2018-05-17T11:03:51.481Z,1147.50
2018-05-17T11:04:51.424Z,1074.38
2018-05-17T11:05:51.367Z,1051.88
2018-05-17T11:06:51.313Z,1068.75
2018-05-17T11:07:51.259Z,1102.50
2018-05-17T11:08:51.203Z,1113.75
2018-05-17T11:09:51.143Z,1125.00
2018-05-17T11:10:51.114Z,1141.88
2018-05-17T11:11:51.035Z,1231.88
2018-05-17T11:12:50.980Z,1282.50
2018-05-17T11:13:50.930Z,1293.75
2018-05-17T11:14:50.873Z,1344.38
2018-05-17T11:15:50.818Z,1350.00
2018-05-17T11:16:50.760Z,1383.75
2018-05-17T11:17:50.709Z,2233.13
2018-05-17T11:18:50.656Z,3521.25
2018-05-17T11:19:50.603Z,3684.38
2018-05-17T11:20:50.546Z,3712.50
2018-05-17T11:21:50.492Z,3892.50
2018-05-17T11:22:50.434Z,1445.63
2018-05-17T11:23:50.383Z,1361.25
2018-05-17T11:24:50.335Z,1282.50
2018-05-17T11:25:50.356Z,2885.63
2018-05-17T11:26:50.227Z,4449.38
2018-05-17T11:27:50.177Z,4016.25
2018-05-17T11:28:50.119Z,4325.63
2018-05-17T11:29:50.107Z,3369.38
2018-05-17T11:30:50.017Z,1333.13
2018-05-17T11:31:49.965Z,1108.13
2018-05-17T11:32:49.912Z,1271.25
2018-05-17T11:33:49.859Z,3673.13
2018-05-17T11:34:49.805Z,3712.50
2018-05-17T11:35:49.751Z,1141.88
2018-05-17T11:36:49.701Z,3043.13
2018-05-17T11:37:49.646Z,3706.88
2018-05-17T11:38:49.596Z,3566.25
2018-05-17T11:39:49.548Z,1265.63
2018-05-17T11:40:49.492Z,1333.13
2018-05-17T11:41:49.816Z,3633.75
2018-05-17T11:42:49.557Z,3543.75
2018-05-17T11:43:49.342Z,3740.63
2018-05-17T11:44:49.286Z,3729.38
2018-05-17T11:45:49.245Z,3971.25
2018-05-17T11:46:49.183Z,1681.88
2018-05-17T11:47:49.130Z,3706.88
2018-05-17T11:48:49.083Z,1096.88
2018-05-17T11:49:49.026Z,1321.88
2018-05-17T11:50:48.979Z,3971.25
2018-05-17T11:51:48.926Z,3999.38
2018-05-17T11:52:48.879Z,3037.50
2018-05-17T11:53:48.835Z,3144.38
2018-05-17T11:54:48.777Z,3206.25
2018-05-17T11:55:48.725Z,3487.50
2018-05-17T11:56:48.673Z,3661.88
2018-05-17T11:57:48.630Z,3504.38
2018-05-17T11:58:48.578Z,3706.88
2018-05-17T11:59:48.528Z,3571.88
2018-05-17T12:00:48.482Z,3594.38
2018-05-17T12:01:48.422Z,3538.13
2018-05-17T12:02:48.407Z,3566.25
2018-05-17T12:03:48.328Z,3397.50
2018-05-17T12:04:48.278Z,2649.38
2018-05-17T12:05:48.227Z,3397.50
2018-05-17T12:06:48.190Z,3414.38
2018-05-17T12:07:48.147Z,3330.00
2018-05-17T12:08:48.085Z,3408.75
2018-05-17T12:09:48.027Z,3324.38
2018-05-17T12:10:47.980Z,3403.13
2018-05-17T12:11:47.935Z,3240.00
2018-05-17T12:12:47.880Z,3088.13
2018-05-17T12:13:47.847Z,3172.50
2018-05-17T12:14:47.785Z,3071.25
2018-05-17T12:15:47.735Z,2311.88
2018-05-17T12:16:47.685Z,3110.63
2018-05-17T12:17:47.635Z,3015.00
2018-05-17T12:18:47.581Z,3020.63
2018-05-17T12:19:47.536Z,2902.50
2018-05-17T12:20:47.483Z,3037.50
2018-05-17T12:21:47.436Z,3330.00
2018-05-17T12:22:47.392Z,3403.13
2018-05-17T12:23:47.347Z,3414.38
2018-05-17T12:24:47.291Z,3605.63
2018-05-17T12:25:47.240Z,3684.38
2018-05-17T12:26:47.187Z,3740.63
2018-05-17T12:27:47.151Z,3650.63
2018-05-17T12:28:47.097Z,3549.38
2018-05-17T12:29:47.045Z,3678.75
2018-05-17T12:30:46.994Z,3780.00
2018-05-17T12:31:47.002Z,2171.25
2018-05-17T12:32:46.898Z,3633.75
2018-05-17T12:33:46.846Z,3948.75
2018-05-17T12:34:46.804Z,3976.88
2018-05-17T12:35:46.754Z,4033.13
2018-05-17T12:36:46.712Z,4021.88
2018-05-17T12:37:46.663Z,3864.38
2018-05-17T12:38:46.608Z,3847.50
2018-05-17T12:39:46.561Z,3796.88
2018-05-17T12:40:46.516Z,3802.50
2018-05-17T12:41:46.463Z,3825.00
2018-05-17T12:42:46.483Z,3976.88
2018-05-17T12:43:46.375Z,3836.25
2018-05-17T12:44:46.325Z,3903.75
2018-05-17T12:45:46.274Z,3785.63
2018-05-17T12:46:46.229Z,3684.38
2018-05-17T12:47:46.183Z,3645.00
2018-05-17T12:48:46.153Z,3594.38
2018-05-17T12:49:46.088Z,3515.63
2018-05-17T12:50:46.120Z,3712.50
2018-05-17T12:51:45.996Z,3808.13
2018-05-17T12:52:45.949Z,3954.38
2018-05-17T12:53:45.894Z,4027.50
2018-05-17T12:54:45.854Z,4134.38
2018-05-17T12:55:45.802Z,3774.38
2018-05-17T12:56:45.851Z,4050.00
2018-05-17T12:57:45.711Z,4066.88